Time;durP1;ratioP1;P1;durP2;ratioP2;P2;SDS_P1;SDS_P2;PMS_P1;PMS_P2;Temp;Humidity;BMP_temperature;BMP_pressure;BME280_temperature;BME280_humidity;BME280_pressure;Samples;Min_cycle;Max_cycle;Signal;HPM_P1;HPM_P2
2023/11/23 00:02:39;;;;;;;;;;;;;;;;;;;;;
2023/11/23 00:05:57;;;;;;;14.35;9.45;;;7.50;99.90;;;;;;5031119;28;20437;-86
2023/11/23 00:08:50;;;;;;;16.13;10.10;;;7.50;1.00;;;;;;5028054;28;20572;-86
2023/11/23 00:11:29;;;;;;;;;;;;;;;;;;;;;
2023/11/23 00:14:09;;;;;;;15.97;10.73;;;7.50;1.00;;;;;;5036442;28;20174;-87
2023/11/23 00:16:35;;;;;;;18.80;9.80;;;7.60;1.00;;;;;;5013897;28;20551;-87
2023/11/23 00:19:01;;;;;;;21.13;10.40;;;7.60;1.00;;;;;;5020313;28;20817;-86
2023/11/23 00:21:26;;;;;;;17.17;10.53;;;7.60;1.00;;;;;;5013268;28;20179;-87
2023/11/23 00:23:53;;;;;;;17.13;9.90;;;7.60;1.00;;;;;;5027207;28;20174;-87
2023/11/23 00:26:41;;;;;;;14.70;9.77;;;7.70;1.00;;;;;;5023241;28;20441;-86
2023/11/23 00:29:06;;;;;;;19.20;10.20;;;7.70;1.00;;;;;;5032597;28;20467;-87
2023/11/23 00:31:54;;;;;;;20.57;11.77;;;7.70;1.00;;;;;;5028607;28;20417;-86
2023/11/23 00:48:12;;;;;;;21.77;12.37;;;7.80;1.00;;;;;;4995338;28;20494;-86
2023/11/23 00:54:40;;;;;;;18.00;11.40;;;7.80;1.00;;;;;;4946591;28;20440;-87
2023/11/23 00:57:27;;;;;;;21.20;11.53;;;7.80;1.00;;;;;;4931588;29;20541;-87
2023/11/23 01:00:40;;;;;;;27.97;12.73;;;7.80;1.00;;;;;;4946244;29;20573;-87
2023/11/23 01:03:32;;;;;;;25.37;13.30;;;7.80;1.00;;;;;;4890101;29;20437;-86
2023/11/23 01:06:41;;;;;;;23.40;12.67;;;7.80;1.00;;;;;;4941168;29;20437;-87
2023/11/23 01:09:37;;;;;;;24.57;13.53;;;7.80;1.00;;;;;;4949740;29;20438;-87
2023/11/23 01:12:13;;;;;;;;;;;;;;;;;;;;;
2023/11/23 01:14:58;;;;;;;;;;;;;;;;;;;;;
2023/11/23 01:21:31;;;;;;;24.60;12.50;;;7.80;1.00;;;;;;4951570;28;20441;-86
2023/11/23 01:24:28;;;;;;;19.60;11.70;;;7.80;1.00;;;;;;4953045;28;20437;-86
2023/11/23 04:39:07;;;;;;;35.33;20.03;;;8.80;1.00;;;;;;4207384;22;20493;-85
2023/11/23 04:41:33;;;;;;;23.47;16.00;;;8.80;1.00;;;;;;5035516;28;20535;-86
2023/11/23 04:44:00;;;;;;;31.10;18.83;;;8.80;1.00;;;;;;5060707;28;20186;-87
2023/11/23 04:46:26;;;;;;;32.83;17.73;;;8.80;1.00;;;;;;5058572;28;20662;-87
2023/11/23 04:48:52;;;;;;;31.87;17.90;;;8.80;1.00;;;;;;5030947;28;20527;-87
2023/11/23 04:51:17;;;;;;;26.80;18.30;;;8.90;1.00;;;;;;5022952;28;20477;-85
2023/11/23 04:53:43;;;;;;;28.20;17.83;;;8.90;1.00;;;;;;5041909;28;20186;-86
2023/11/23 04:56:08;;;;;;;34.33;19.83;;;8.90;1.00;;;;;;5038549;28;20217;-86
2023/11/23 04:58:34;;;;;;;31.10;18.67;;;8.90;1.00;;;;;;5039730;28;20209;-85
2023/11/23 05:01:03;;;;;;;31.03;19.33;;;8.90;1.00;;;;;;5019735;28;20191;-86
2023/11/23 05:03:29;;;;;;;31.20;18.40;;;8.90;1.00;;;;;;5032095;28;20183;-86
2023/11/23 05:05:55;;;;;;;42.90;20.10;;;8.90;1.00;;;;;;5025534;28;20454;-86
2023/11/23 05:08:21;;;;;;;35.37;18.70;;;8.90;1.00;;;;;;5013735;28;20460;-85
2023/11/23 05:10:47;;;;;;;29.97;19.50;;;8.90;1.00;;;;;;5035660;28;20229;-86
2023/11/23 05:13:13;;;;;;;30.57;18.37;;;9.00;1.00;;;;;;5031357;28;20266;-86
2023/11/23 05:15:38;;;;;;;31.40;19.47;;;9.00;1.00;;;;;;5033061;28;20269;-86
2023/11/23 05:18:04;;;;;;;34.20;19.27;;;9.00;1.00;;;;;;5032098;28;21124;-86
2023/11/23 05:20:30;;;;;;;30.07;19.30;;;9.00;1.00;;;;;;5037076;28;20201;-86
2023/11/23 05:22:55;;;;;;;37.73;21.30;;;9.00;1.00;;;;;;5034953;28;20220;-86
2023/11/23 05:25:20;;;;;;;31.03;21.00;;;9.00;1.00;;;;;;5033331;28;20194;-85
2023/11/23 05:27:46;;;;;;;36.77;20.97;;;9.00;1.00;;;;;;5032205;28;20207;-84
2023/11/23 05:30:12;;;;;;;31.50;21.13;;;9.00;1.00;;;;;;5037190;28;20613;-85
2023/11/23 05:32:37;;;;;;;41.77;21.37;;;9.10;1.00;;;;;;5015489;28;20189;-84
2023/11/23 05:35:05;;;;;;;31.60;20.43;;;9.10;1.00;;;;;;5019813;28;20197;-86
2023/11/23 05:37:31;;;;;;;36.10;21.23;;;9.10;1.00;;;;;;5032708;28;20692;-85
2023/11/23 05:39:56;;;;;;;31.97;19.73;;;9.10;1.00;;;;;;5018833;28;20449;-86
2023/11/23 05:42:22;;;;;;;32.47;19.33;;;9.20;1.00;;;;;;5012131;28;20800;-85
2023/11/23 05:44:48;;;;;;;35.80;20.80;;;9.20;1.00;;;;;;5027306;28;20186;-86
2023/11/23 05:47:14;;;;;;;37.83;21.70;;;9.20;1.00;;;;;;5028213;28;20174;-84
2023/11/23 05:49:39;;;;;;;37.63;21.77;;;9.20;1.00;;;;;;5018450;28;20660;-86
2023/11/23 05:52:07;;;;;;;38.93;21.00;;;9.20;1.00;;;;;;5010438;28;20446;-85
2023/11/23 05:54:33;;;;;;;32.50;20.07;;;9.30;1.00;;;;;;5017418;28;20183;-86
2023/11/23 05:56:58;;;;;;;36.23;22.00;;;9.30;1.00;;;;;;5028195;28;20515;-85
2023/11/23 05:59:24;;;;;;;42.23;21.90;;;9.30;1.00;;;;;;5011774;28;20263;-86
2023/11/23 06:01:50;;;;;;;31.90;20.53;;;9.30;1.00;;;;;;5026417;28;20653;-85
2023/11/23 06:04:16;;;;;;;40.80;21.27;;;9.30;1.00;;;;;;5017633;28;20185;-87
2023/11/23 06:06:41;;;;;;;34.23;20.40;;;9.30;1.00;;;;;;5033783;28;20441;-85
2023/11/23 06:09:09;;;;;;;31.27;20.47;;;9.30;1.00;;;;;;5033812;28;20210;-85
2023/11/23 06:11:34;;;;;;;32.23;19.50;;;9.30;1.00;;;;;;5013862;28;20179;-85
2023/11/23 06:14:00;;;;;;;34.40;21.10;;;9.40;1.00;;;;;;5012353;28;20463;-88
2023/11/23 06:16:26;;;;;;;30.30;19.30;;;9.40;1.00;;;;;;5011202;28;20345;-86
2023/11/23 06:18:52;;;;;;;39.20;20.03;;;9.40;1.00;;;;;;5016569;28;20196;-86
2023/11/23 06:21:17;;;;;;;40.17;21.43;;;9.40;1.00;;;;;;5009032;28;20198;-87
2023/11/23 06:23:43;;;;;;;36.93;21.43;;;9.40;1.00;;;;;;5026908;28;20466;-85
2023/11/23 06:26:10;;;;;;;34.97;22.00;;;9.40;1.00;;;;;;5035355;28;20691;-84
2023/11/23 06:28:36;;;;;;;36.60;20.87;;;9.40;1.00;;;;;;5011423;28;20205;-86
2023/11/23 06:31:01;;;;;;;37.43;20.93;;;9.40;1.00;;;;;;5035186;28;20528;-85
2023/11/23 06:33:27;;;;;;;35.40;19.40;;;9.40;1.00;;;;;;5021153;28;20512;-86
2023/11/23 06:35:54;;;;;;;31.93;20.00;;;9.40;1.00;;;;;;5032804;28;20183;-84
2023/11/23 06:38:20;;;;;;;32.57;20.67;;;9.40;1.00;;;;;;5018395;28;20218;-85
2023/11/23 06:40:47;;;;;;;34.17;21.60;;;9.40;1.00;;;;;;5027898;28;20434;-87
2023/11/23 06:43:13;;;;;;;39.63;21.87;;;9.40;1.00;;;;;;5028947;28;20624;-86
2023/11/23 06:45:43;;;;;;;34.17;20.73;;;9.40;1.00;;;;;;5016489;28;20475;-85
2023/11/23 06:48:09;;;;;;;35.83;20.93;;;9.40;1.00;;;;;;5029252;28;20206;-86
2023/11/23 06:50:35;;;;;;;36.27;20.63;;;9.40;1.00;;;;;;5025793;28;20491;-86
2023/11/23 06:53:01;;;;;;;35.27;20.20;;;9.40;1.00;;;;;;5009801;28;20433;-86
2023/11/23 06:55:26;;;;;;;31.83;19.83;;;9.40;1.00;;;;;;5013472;28;20183;-85
2023/11/23 06:57:52;;;;;;;36.93;21.40;;;9.50;1.00;;;;;;5011055;28;20214;-86
2023/11/23 07:00:25;;;;;;;37.13;21.73;;;9.50;1.00;;;;;;5016470;28;20706;-85
2023/11/23 07:02:53;;;;;;;32.20;20.10;;;9.50;1.00;;;;;;5035100;28;20265;-84
2023/11/23 07:05:19;;;;;;;32.97;19.60;;;9.60;1.00;;;;;;5024636;28;20465;-86
2023/11/23 07:07:47;;;;;;;34.57;20.70;;;9.70;1.00;;;;;;5029796;28;20535;-86
2023/11/23 07:10:13;;;;;;;33.57;21.60;;;9.70;1.00;;;;;;5026553;28;20496;-86
2023/11/23 07:12:39;;;;;;;31.07;19.70;;;9.80;1.00;;;;;;5028369;28;20468;-86
2023/11/23 07:15:05;;;;;;;36.53;19.67;;;9.80;1.00;;;;;;5030351;28;20433;-86
2023/11/23 07:17:31;;;;;;;30.70;18.67;;;9.80;1.00;;;;;;5019405;28;20475;-85
2023/11/23 07:19:56;;;;;;;34.03;19.00;;;9.80;1.00;;;;;;5011133;28;20830;-86
2023/11/23 07:22:23;;;;;;;34.80;19.60;;;9.80;1.00;;;;;;5006513;28;20179;-86
2023/11/23 07:24:49;;;;;;;31.13;19.43;;;9.80;1.00;;;;;;5006982;28;20202;-89
2023/11/23 07:27:15;;;;;;;36.23;20.70;;;9.80;1.00;;;;;;5030986;28;20476;-86
2023/11/23 07:29:40;;;;;;;32.63;21.70;;;9.90;1.00;;;;;;5029646;28;20178;-86
2023/11/23 07:32:08;;;;;;;34.50;21.23;;;9.90;1.00;;;;;;5027039;28;20194;-86
2023/11/23 07:34:35;;;;;;;46.53;21.30;;;9.90;1.00;;;;;;5027193;28;20175;-86
2023/11/23 07:37:00;;;;;;;35.17;20.20;;;9.90;1.00;;;;;;5037963;28;20507;-86
2023/11/23 07:39:26;;;;;;;31.60;20.77;;;10.00;1.00;;;;;;5036132;28;20460;-86
2023/11/23 07:41:52;;;;;;;31.47;18.90;;;10.00;1.00;;;;;;5037403;28;20178;-87
2023/11/23 07:44:20;;;;;;;38.27;19.60;;;10.00;1.00;;;;;;5007459;28;20480;-86
2023/11/23 07:46:47;;;;;;;32.73;20.00;;;10.00;1.00;;;;;;5031566;28;20209;-86
2023/11/23 07:49:13;;;;;;;30.97;20.03;;;10.00;1.00;;;;;;5030091;28;20448;-85
2023/11/23 07:51:38;;;;;;;29.30;17.80;;;10.10;1.00;;;;;;5034871;28;20529;-87
2023/11/23 07:54:04;;;;;;;32.97;18.50;;;10.10;1.00;;;;;;5037239;28;20432;-86
2023/11/23 07:56:31;;;;;;;26.63;18.20;;;10.10;1.00;;;;;;5033281;28;20218;-87
2023/11/23 07:58:56;;;;;;;34.47;20.37;;;10.10;1.00;;;;;;5035169;28;20468;-86
2023/11/23 08:01:22;;;;;;;27.80;18.70;;;10.10;1.00;;;;;;5007545;28;20426;-87
2023/11/23 08:03:47;;;;;;;31.60;18.57;;;10.10;1.00;;;;;;5034169;28;20194;-88
2023/11/23 08:06:14;;;;;;;28.40;18.00;;;10.20;1.00;;;;;;5036866;28;20187;-86
2023/11/23 08:08:40;;;;;;;29.07;19.30;;;10.20;1.00;;;;;;5039746;28;20201;-90
2023/11/23 08:11:06;;;;;;;30.17;18.27;;;10.30;1.00;;;;;;5022614;28;20504;-86
2023/11/23 08:13:31;;;;;;;27.17;18.97;;;10.30;1.00;;;;;;5030587;28;20700;-86
2023/11/23 08:16:00;;;;;;;25.57;16.70;;;10.40;1.00;;;;;;5028883;28;20224;-86
2023/11/23 08:18:25;;;;;;;30.53;18.40;;;10.60;1.00;;;;;;5030243;28;20465;-86
2023/11/23 08:20:51;;;;;;;26.10;17.00;;;10.90;1.00;;;;;;5011533;28;20985;-86
2023/11/23 08:23:17;;;;;;;27.33;17.80;;;11.10;1.00;;;;;;5030238;28;20538;-86
2023/11/23 08:25:42;;;;;;;26.30;18.17;;;11.10;1.00;;;;;;5027691;28;20178;-87
2023/11/23 08:28:08;;;;;;;23.60;17.70;;;10.90;1.00;;;;;;5032405;28;20214;-86
2023/11/23 08:30:33;;;;;;;31.70;18.30;;;10.90;1.00;;;;;;5029713;28;20206;-85
2023/11/23 08:32:59;;;;;;;24.90;17.40;;;10.80;1.00;;;;;;5033866;28;20248;-86
2023/11/23 08:35:24;;;;;;;26.93;18.30;;;10.80;1.00;;;;;;5031945;28;20191;-87
2023/11/23 08:37:50;;;;;;;27.83;18.23;;;10.80;1.00;;;;;;5010423;28;20762;-86
2023/11/23 08:40:15;;;;;;;28.00;18.57;;;10.80;1.00;;;;;;5011379;28;20183;-87
2023/11/23 08:42:41;;;;;;;26.37;18.17;;;10.80;1.00;;;;;;5030602;28;20187;-86
2023/11/23 08:45:08;;;;;;;25.27;18.33;;;10.80;1.00;;;;;;5028375;28;20179;-86
2023/11/23 08:47:33;;;;;;;26.70;18.90;;;10.80;1.00;;;;;;5033904;28;20222;-87
2023/11/23 08:49:59;;;;;;;30.77;18.87;;;10.90;1.00;;;;;;5029170;28;20449;-86
2023/11/23 08:52:24;;;;;;;24.47;16.50;;;11.10;1.00;;;;;;5029726;28;20210;-87
2023/11/23 08:54:50;;;;;;;31.73;16.13;;;11.10;1.00;;;;;;5004027;28;20227;-86
2023/11/23 08:57:16;;;;;;;26.30;17.67;;;11.20;1.00;;;;;;5023600;28;20237;-86
2023/11/23 08:59:41;;;;;;;26.63;18.43;;;11.30;1.00;;;;;;5026965;28;20327;-84
2023/11/23 09:02:07;;;;;;;26.77;16.60;;;11.30;1.00;;;;;;5032104;28;20188;-86
2023/11/23 09:04:37;;;;;;;21.93;17.00;;;11.30;1.00;;;;;;5031077;28;20183;-87
2023/11/23 09:07:02;;;;;;;26.17;16.07;;;11.20;1.00;;;;;;5035603;28;20561;-86
2023/11/23 09:09:29;;;;;;;23.70;14.70;;;11.30;1.00;;;;;;5011216;28;20561;-86
2023/11/23 09:11:55;;;;;;;24.70;17.13;;;11.20;1.00;;;;;;5034940;28;20433;-85
2023/11/23 09:14:20;;;;;;;22.93;15.27;;;11.30;1.00;;;;;;5022637;28;20449;-85
2023/11/23 09:16:46;;;;;;;25.20;16.80;;;11.30;1.00;;;;;;5028688;28;20473;-83
2023/11/23 09:19:12;;;;;;;20.80;15.93;;;11.40;1.00;;;;;;5032662;28;20734;-88
2023/11/23 09:21:37;;;;;;;28.93;18.40;;;11.40;1.00;;;;;;5035895;28;20715;-86
2023/11/23 09:24:05;;;;;;;22.87;16.50;;;11.40;1.00;;;;;;5031783;28;20187;-86
2023/11/23 09:26:32;;;;;;;24.03;16.67;;;11.40;1.00;;;;;;5024950;28;20650;-86
2023/11/23 09:28:58;;;;;;;30.17;16.83;;;11.40;1.00;;;;;;5030072;28;20537;-86
2023/11/23 09:31:28;;;;;;;26.07;16.40;;;11.40;1.00;;;;;;5027714;28;20492;-86
2023/11/23 09:33:53;;;;;;;24.93;16.77;;;11.30;1.00;;;;;;5029227;28;20437;-84
2023/11/23 09:36:20;;;;;;;24.97;15.70;;;11.40;1.00;;;;;;5009555;28;20988;-86
2023/11/23 09:38:46;;;;;;;23.60;15.90;;;11.40;1.00;;;;;;5028753;28;20286;-85
2023/11/23 09:41:14;;;;;;;21.80;15.10;;;11.50;1.00;;;;;;5035919;28;20429;-86
2023/11/23 09:43:42;;;;;;;19.93;14.67;;;11.60;1.00;;;;;;5035806;28;20516;-83
2023/11/23 09:46:08;;;;;;;20.20;13.23;;;11.90;99.90;;;;;;5013246;28;20433;-84
2023/11/23 09:48:39;;;;;;;22.80;15.13;;;11.90;99.90;;;;;;5014830;28;20457;-86
2023/11/23 09:51:07;;;;;;;19.40;13.77;;;11.90;99.90;;;;;;5029468;28;20437;-84
2023/11/23 09:53:36;;;;;;;20.50;15.20;;;11.80;99.90;;;;;;5028783;28;20892;-86
2023/11/23 09:56:06;;;;;;;22.73;15.10;;;11.80;99.90;;;;;;5018446;28;20868;-89
2023/11/23 09:58:32;;;;;;;24.63;15.27;;;11.80;99.90;;;;;;5031349;28;20509;-86
2023/11/23 10:01:02;;;;;;;23.83;14.30;;;11.80;99.90;;;;;;5006469;28;20434;-86
2023/11/23 10:03:33;;;;;;;20.17;14.50;;;11.80;99.90;;;;;;5021439;28;20434;-86
2023/11/23 10:05:59;;;;;;;18.43;14.40;;;11.80;99.90;;;;;;5016508;28;20444;-85
2023/11/23 10:08:27;;;;;;;15.70;13.00;;;11.80;99.90;;;;;;5014827;28;20894;-86
2023/11/23 10:10:53;;;;;;;16.37;11.97;;;11.70;99.90;;;;;;5012575;28;20437;-85
2023/11/23 10:13:21;;;;;;;19.67;12.70;;;11.70;99.90;;;;;;5020320;28;20464;-87
2023/11/23 10:15:47;;;;;;;22.30;12.47;;;11.80;99.90;;;;;;5033637;28;20218;-85
2023/11/23 10:18:13;;;;;;;22.03;13.30;;;11.80;99.90;;;;;;5032598;28;20472;-85
2023/11/23 10:20:45;;;;;;;19.80;12.83;;;11.80;99.90;;;;;;5038910;28;20593;-87
2023/11/23 10:23:12;;;;;;;18.57;13.47;;;11.70;99.90;;;;;;5020074;28;20430;-87
2023/11/23 10:25:41;;;;;;;16.00;11.67;;;11.70;1.00;;;;;;5037635;28;20954;-85
2023/11/23 10:28:07;;;;;;;16.17;12.40;;;11.70;1.00;;;;;;5011590;28;20468;-87
2023/11/23 10:30:39;;;;;;;17.47;12.23;;;11.70;1.00;;;;;;5025426;28;20438;-87
2023/11/23 10:33:05;;;;;;;14.67;12.03;;;11.70;1.00;;;;;;5039003;28;20449;-85
2023/11/23 10:35:38;;;;;;;16.47;12.13;;;11.70;1.00;;;;;;5022064;28;20445;-86
2023/11/23 10:38:05;;;;;;;22.27;11.23;;;11.80;1.00;;;;;;5032280;28;20512;-87
2023/11/23 10:40:32;;;;;;;18.77;11.83;;;11.80;99.90;;;;;;5012106;28;20449;-88
2023/11/23 10:43:01;;;;;;;14.40;10.90;;;11.80;99.90;;;;;;5014928;28;20441;-87
2023/11/23 10:45:27;;;;;;;15.63;11.60;;;11.80;99.90;;;;;;5033599;28;20465;-87
2023/11/23 10:47:53;;;;;;;16.80;11.40;;;11.70;1.00;;;;;;5033878;28;20468;-87
2023/11/23 10:50:20;;;;;;;16.07;11.30;;;11.70;1.00;;;;;;5024095;28;20438;-86
2023/11/23 10:52:46;;;;;;;13.30;9.10;;;11.80;1.00;;;;;;5038443;28;20441;-86
2023/11/23 10:55:12;;;;;;;13.93;10.30;;;11.70;1.00;;;;;;5015728;28;20461;-86
2023/11/23 10:57:45;;;;;;;19.63;11.77;;;11.70;1.00;;;;;;5034124;28;20506;-89
2023/11/23 11:00:17;;;;;;;19.03;10.70;;;11.70;1.00;;;;;;5013090;28;20515;-88
2023/11/23 11:02:45;;;;;;;13.80;9.50;;;11.70;1.00;;;;;;5024698;28;20468;-87
2023/11/23 11:05:28;;;;;;;13.93;10.70;;;11.80;1.00;;;;;;5014851;28;20430;-87
2023/11/23 11:08:17;;;;;;;17.83;9.80;;;11.80;1.00;;;;;;5006262;28;20527;-85
2023/11/23 11:10:50;;;;;;;12.80;7.73;;;11.90;1.00;;;;;;5000699;28;20439;-87
2023/11/23 11:13:25;;;;;;;15.80;10.33;;;11.90;99.90;;;;;;5011911;28;20441;-85
2023/11/23 11:15:57;;;;;;;10.00;7.87;;;12.00;99.90;;;;;;5034333;28;20523;-86
2023/11/23 11:18:27;;;;;;;13.47;8.50;;;12.10;99.90;;;;;;5031227;28;20477;-85
2023/11/23 11:21:10;;;;;;;11.43;9.13;;;12.10;99.90;;;;;;5030997;28;20520;-86
2023/11/23 11:23:52;;;;;;;12.30;9.20;;;12.20;99.90;;;;;;5013892;28;20477;-88
2023/11/23 11:26:24;;;;;;;15.67;8.23;;;12.20;99.90;;;;;;5016437;28;20561;-86
2023/11/23 11:29:00;;;;;;;12.30;8.57;;;12.30;99.90;;;;;;5029495;28;20453;-86
2023/11/23 11:31:37;;;;;;;11.17;8.47;;;12.30;99.90;;;;;;5030078;28;20430;-88
2023/11/23 11:34:17;;;;;;;11.80;8.63;;;12.30;99.90;;;;;;5029084;28;20438;-86
2023/11/23 11:36:43;;;;;;;12.07;7.97;;;12.40;99.90;;;;;;5021989;28;20469;-85
2023/11/23 11:39:12;;;;;;;14.10;7.30;;;12.50;99.90;;;;;;5006919;28;20532;-86
2023/11/23 11:41:38;;;;;;;10.07;7.77;;;12.60;99.90;;;;;;5023760;28;20473;-85
2023/11/23 11:44:05;;;;;;;11.40;7.90;;;12.60;12.60;;;;;;5030090;28;20437;-86
2023/11/23 11:46:31;;;;;;;12.17;7.60;;;12.70;1.00;;;;;;5028776;28;20234;-88
2023/11/23 11:49:00;;;;;;;13.30;8.20;;;12.70;1.00;;;;;;5023411;28;20478;-87
2023/11/23 11:51:32;;;;;;;12.63;8.20;;;12.80;1.00;;;;;;5024875;28;20525;-84
2023/11/23 11:54:00;;;;;;;11.97;7.30;;;12.90;1.00;;;;;;5028716;28;20452;-87
2023/11/23 11:56:26;;;;;;;8.57;7.00;;;13.00;99.90;;;;;;5009311;28;20485;-84
2023/11/23 11:58:52;;;;;;;12.17;7.30;;;13.10;99.90;;;;;;5027399;28;20485;-87
2023/11/23 12:01:19;;;;;;;11.53;7.23;;;13.20;99.90;;;;;;5023526;28;20426;-85
2023/11/23 12:03:51;;;;;;;11.70;7.23;;;13.20;1.00;;;;;;5001441;28;20472;-84
2023/11/23 12:06:19;;;;;;;9.17;5.97;;;13.30;1.00;;;;;;5013968;28;20493;-88
2023/11/23 12:08:45;;;;;;;12.13;7.00;;;13.20;1.00;;;;;;5032493;28;20487;-85
2023/11/23 12:11:23;;;;;;;8.60;6.90;;;13.10;40.90;;;;;;5025747;28;20863;-86
2023/11/23 12:13:54;;;;;;;9.40;6.67;;;13.10;99.90;;;;;;5024538;28;20930;-86
2023/11/23 12:16:21;;;;;;;14.30;6.60;;;13.00;99.90;;;;;;5003825;28;21209;-84
2023/11/23 12:18:48;;;;;;;10.50;6.40;;;13.00;99.90;;;;;;5001685;28;20886;-86
2023/11/23 12:21:15;;;;;;;7.60;6.60;;;13.00;1.00;;;;;;5025633;28;20464;-86
2023/11/23 12:23:45;;;;;;;10.57;6.50;;;12.90;99.90;;;;;;5034709;28;20432;-85
2023/11/23 12:26:12;;;;;;;12.40;6.60;;;12.80;1.00;;;;;;5018421;28;20430;-89
2023/11/23 12:28:38;;;;;;;8.37;6.63;;;12.80;1.00;;;;;;5030358;28;20453;-86
2023/11/23 12:31:10;;;;;;;9.50;6.63;;;12.70;1.00;;;;;;5030689;28;20441;-85
2023/11/23 12:33:35;;;;;;;12.63;5.60;;;12.70;1.00;;;;;;5036405;28;20429;-86
2023/11/23 12:36:01;;;;;;;7.97;6.53;;;12.70;1.00;;;;;;5026816;28;20440;-86
2023/11/23 12:38:27;;;;;;;6.80;5.63;;;12.70;1.00;;;;;;5029458;28;20210;-86
2023/11/23 12:40:52;;;;;;;8.97;5.30;;;12.70;1.00;;;;;;5011771;28;20186;-86
2023/11/23 12:43:18;;;;;;;7.60;5.67;;;12.70;1.00;;;;;;5030431;28;20263;-86
2023/11/23 12:45:43;;;;;;;9.27;5.40;;;12.70;1.00;;;;;;5026576;28;20194;-86
2023/11/23 12:48:10;;;;;;;6.87;4.90;;;12.70;1.00;;;;;;5028626;28;20344;-86
2023/11/23 12:50:36;;;;;;;6.33;5.13;;;12.60;1.00;;;;;;5037517;28;20661;-85
2023/11/23 12:53:01;;;;;;;11.13;6.20;;;12.60;4.70;;;;;;5027367;28;20461;-86
2023/11/23 12:55:27;;;;;;;10.47;5.47;;;12.60;71.80;;;;;;5035228;28;20187;-86
2023/11/23 12:57:54;;;;;;;11.60;5.27;;;12.60;79.30;;;;;;5032534;28;20226;-85
2023/11/23 13:00:21;;;;;;;9.97;5.60;;;12.60;51.00;;;;;;5026003;28;20179;-87
2023/11/23 13:02:47;;;;;;;8.37;5.50;;;12.60;70.30;;;;;;5030215;28;21028;-85
2023/11/23 13:05:12;;;;;;;8.10;5.40;;;12.60;88.80;;;;;;5033119;28;20467;-86
2023/11/23 13:07:41;;;;;;;7.63;5.53;;;12.60;76.90;;;;;;5027429;28;20639;-84
2023/11/23 13:10:09;;;;;;;9.60;5.60;;;12.60;92.50;;;;;;5011848;28;20267;-84
2023/11/23 13:12:35;;;;;;;10.00;5.00;;;12.50;77.30;;;;;;5031948;28;20437;-83
2023/11/23 13:15:01;;;;;;;13.53;5.47;;;12.50;99.90;;;;;;5039144;28;20426;-85
2023/11/23 13:17:26;;;;;;;9.40;6.13;;;12.50;99.90;;;;;;5029618;28;20453;-85
2023/11/23 13:19:52;;;;;;;6.47;5.47;;;12.40;99.90;;;;;;5033245;28;20190;-86
2023/11/23 13:22:18;;;;;;;9.93;5.30;;;12.40;99.90;;;;;;5013024;28;20692;-83
2023/11/23 13:24:45;;;;;;;10.07;5.40;;;12.40;99.90;;;;;;5031707;28;20430;-85
2023/11/23 13:27:12;;;;;;;5.77;4.50;;;12.30;99.90;;;;;;5006855;28;20835;-85
2023/11/23 13:29:37;;;;;;;9.17;4.50;;;12.30;99.90;;;;;;5038457;28;20451;-86
2023/11/23 13:32:05;;;;;;;7.27;4.83;;;12.30;99.90;;;;;;5035367;28;20461;-86
2023/11/23 13:34:31;;;;;;;19.33;5.13;;;12.30;99.90;;;;;;5043097;28;20183;-86
2023/11/23 13:36:58;;;;;;;8.50;5.30;;;12.30;99.90;;;;;;5034823;28;20476;-88
2023/11/23 13:39:24;;;;;;;8.57;4.90;;;12.30;99.90;;;;;;5028796;28;20469;-85
2023/11/23 13:41:49;;;;;;;8.20;4.50;;;12.30;99.90;;;;;;5018259;28;20446;-85
2023/11/23 13:44:15;;;;;;;6.80;4.80;;;12.20;99.90;;;;;;5029435;28;20430;-86
2023/11/23 13:46:42;;;;;;;7.70;4.83;;;12.20;99.90;;;;;;5039188;28;20183;-87
2023/11/23 13:49:08;;;;;;;8.30;5.17;;;12.20;99.90;;;;;;5017990;28;20213;-87
2023/11/23 13:51:33;;;;;;;8.13;4.60;;;12.20;99.90;;;;;;5022236;28;21690;-86
2023/11/23 13:53:59;;;;;;;6.60;5.07;;;12.20;99.90;;;;;;5025477;28;20449;-86
2023/11/23 13:56:25;;;;;;;9.30;4.40;;;12.20;99.90;;;;;;5032471;28;20191;-85
2023/11/23 13:58:52;;;;;;;8.77;5.70;;;12.20;99.90;;;;;;5035834;28;20210;-86
2023/11/23 14:01:18;;;;;;;7.00;5.30;;;12.20;99.90;;;;;;5014037;28;20429;-85
2023/11/23 14:03:43;;;;;;;10.33;4.70;;;12.20;99.90;;;;;;5038029;28;20438;-86
2023/11/23 14:06:11;;;;;;;11.17;5.30;;;12.20;99.90;;;;;;5031673;28;20972;-84
2023/11/23 14:08:36;;;;;;;8.97;4.30;;;12.20;99.90;;;;;;5026611;28;20224;-84
2023/11/23 14:11:02;;;;;;;5.60;4.53;;;12.20;99.90;;;;;;5030860;28;20477;-86
2023/11/23 14:13:28;;;;;;;4.93;4.00;;;12.20;99.90;;;;;;5027233;28;20207;-85
2023/11/23 14:15:53;;;;;;;13.73;5.30;;;12.20;1.00;;;;;;5033228;28;20191;-85
2023/11/23 14:18:21;;;;;;;6.17;4.40;;;12.20;1.00;;;;;;5011853;28;20238;-86
2023/11/23 14:20:49;;;;;;;6.60;4.53;;;12.20;1.00;;;;;;5027629;28;20824;-84
2023/11/23 14:23:16;;;;;;;7.00;3.97;;;12.20;1.00;;;;;;5027891;28;20978;-87
2023/11/23 14:25:41;;;;;;;16.50;5.27;;;12.20;1.00;;;;;;5029339;28;20445;-85
2023/11/23 14:28:17;;;;;;;6.87;4.33;;;12.20;1.00;;;;;;5017421;28;20457;-85
2023/11/23 14:30:43;;;;;;;7.70;4.00;;;12.20;1.00;;;;;;5027943;28;20197;-83
2023/11/23 14:33:13;;;;;;;10.33;4.27;;;12.20;1.00;;;;;;5033844;28;20448;-83
2023/11/23 14:35:39;;;;;;;5.87;4.13;;;12.20;1.00;;;;;;5008486;28;20443;-84
2023/11/23 14:38:05;;;;;;;9.75;4.88;;;12.20;1.00;;;;;;5025215;28;20433;-84
2023/11/23 14:40:33;;;;;;;12.87;4.30;;;12.30;1.00;;;;;;5024076;28;20186;-85
2023/11/23 14:43:00;;;;;;;7.03;4.33;;;12.30;1.00;;;;;;5024143;28;20252;-85
2023/11/23 14:45:25;;;;;;;7.10;4.87;;;12.30;99.90;;;;;;5030342;28;20430;-84
2023/11/23 14:47:52;;;;;;;7.57;4.13;;;12.30;1.00;;;;;;5033298;28;20542;-84
2023/11/23 14:50:19;;;;;;;11.40;4.00;;;12.30;1.00;;;;;;5025322;28;20457;-85
2023/11/23 14:52:45;;;;;;;8.07;4.53;;;12.30;1.00;;;;;;5028985;28;20433;-85
2023/11/23 14:55:14;;;;;;;5.83;4.20;;;12.30;1.00;;;;;;5033203;28;20461;-85
2023/11/23 14:57:40;;;;;;;5.93;4.90;;;12.30;1.00;;;;;;5029486;28;20871;-84
2023/11/23 15:00:07;;;;;;;8.40;4.77;;;12.30;1.00;;;;;;5033000;28;20448;-84
2023/11/23 15:02:36;;;;;;;7.17;4.57;;;12.30;1.00;;;;;;5005549;28;20273;-85
2023/11/23 15:05:02;;;;;;;10.13;5.00;;;12.30;1.00;;;;;;5011425;28;20525;-85
2023/11/23 15:07:28;;;;;;;7.37;4.70;;;12.30;1.00;;;;;;5014084;28;20507;-84
2023/11/23 15:09:53;;;;;;;9.20;4.10;;;12.30;1.00;;;;;;5027879;28;20449;-86
2023/11/23 15:12:21;;;;;;;6.73;4.50;;;12.30;99.90;;;;;;5022967;28;20676;-84
2023/11/23 15:14:47;;;;;;;8.20;4.10;;;12.30;1.00;;;;;;5016762;28;20526;-85
2023/11/23 15:17:12;;;;;;;7.93;4.57;;;12.30;1.00;;;;;;5028961;28;20532;-85
2023/11/23 15:19:38;;;;;;;9.90;4.57;;;12.30;99.90;;;;;;5024350;28;20187;-84
2023/11/23 15:22:07;;;;;;;6.03;3.30;;;12.30;99.90;;;;;;5027915;28;20270;-85
2023/11/23 15:24:34;;;;;;;10.63;4.20;;;12.30;99.90;;;;;;5027801;28;20179;-86
2023/11/23 15:27:00;;;;;;;6.40;3.67;;;12.30;99.90;;;;;;5036370;28;20468;-85
2023/11/23 15:29:26;;;;;;;6.30;3.73;;;12.30;99.90;;;;;;5012713;28;20466;-85
2023/11/23 15:31:53;;;;;;;9.13;3.43;;;12.40;99.90;;;;;;5026759;28;20965;-86
2023/11/23 15:34:20;;;;;;;6.60;3.50;;;12.30;99.90;;;;;;5022614;28;20457;-85
2023/11/23 15:36:46;;;;;;;4.20;3.80;;;12.30;99.90;;;;;;5025858;28;20467;-87
2023/11/23 15:39:13;;;;;;;7.33;3.40;;;12.40;99.90;;;;;;5035667;28;20529;-84
2023/11/23 15:41:41;;;;;;;4.37;3.10;;;12.40;99.90;;;;;;5032563;28;20445;-84
2023/11/23 15:44:09;;;;;;;7.83;4.10;;;12.40;99.90;;;;;;5028862;28;20838;-86
2023/11/23 15:46:35;;;;;;;4.50;3.50;;;12.40;99.90;;;;;;5030561;28;20434;-86
2023/11/23 15:49:03;;;;;;;7.10;3.80;;;12.40;99.90;;;;;;5025596;28;20445;-87
2023/11/23 15:51:28;;;;;;;7.72;4.28;;;12.40;99.90;;;;;;5028299;28;20429;-86
2023/11/23 15:53:56;;;;;;;5.20;3.37;;;12.40;99.90;;;;;;5027059;28;20259;-87
2023/11/23 15:56:22;;;;;;;7.77;4.13;;;12.50;99.90;;;;;;5046059;28;20175;-85
2023/11/23 15:58:50;;;;;;;9.13;4.37;;;12.50;99.90;;;;;;5031163;28;20470;-85
2023/11/23 16:01:23;;;;;;;10.43;4.70;;;12.50;99.90;;;;;;5019238;28;20183;-86
2023/11/23 16:03:49;;;;;;;6.83;3.70;;;12.50;99.90;;;;;;5017266;28;20468;-86
2023/11/23 16:06:15;;;;;;;5.17;4.07;;;12.50;99.90;;;;;;5022260;28;20422;-85
2023/11/23 16:08:41;;;;;;;6.73;4.30;;;12.40;99.90;;;;;;5032204;28;20595;-85
2023/11/23 16:11:06;;;;;;;4.43;3.90;;;12.40;99.90;;;;;;5041369;28;20187;-87
2023/11/23 16:13:32;;;;;;;5.83;3.93;;;12.40;99.90;;;;;;5022427;28;20191;-86
2023/11/23 16:16:00;;;;;;;9.53;3.73;;;12.40;99.90;;;;;;5028473;28;20821;-85
2023/11/23 16:18:28;;;;;;;7.10;4.73;;;12.40;99.90;;;;;;5030787;28;20217;-85
2023/11/23 16:20:56;;;;;;;8.60;3.90;;;12.40;99.90;;;;;;5010211;28;20854;-85
2023/11/23 16:23:24;;;;;;;11.33;4.40;;;12.40;99.90;;;;;;5024913;28;20456;-86
2023/11/23 16:25:50;;;;;;;4.53;4.07;;;12.30;99.90;;;;;;5011220;28;20430;-86
2023/11/23 16:28:21;;;;;;;5.63;4.23;;;12.30;99.90;;;;;;5014487;28;20552;-86